createdAt,value
2022-09-15T00:00:30.841Z,2.30
2022-09-15T00:02:57.687Z,2.30
2022-09-15T00:05:24.627Z,2.47
2022-09-15T00:07:51.446Z,2.33
2022-09-15T00:10:18.526Z,2.07
2022-09-15T00:12:45.441Z,2.20
2022-09-15T00:15:14.842Z,1.80
2022-09-15T00:17:43.682Z,2.20
2022-09-15T00:20:11.055Z,1.97
2022-09-15T00:22:38.191Z,2.10
2022-09-15T00:25:05.674Z,2.10
2022-09-15T00:27:33.412Z,1.90
2022-09-15T00:30:00.592Z,2.10
2022-09-15T00:32:27.828Z,2.00
2022-09-15T00:34:54.758Z,2.23
2022-09-15T00:37:21.923Z,1.90
2022-09-15T00:39:49.253Z,1.90
2022-09-15T00:42:18.826Z,1.83
2022-09-15T00:44:59.079Z,1.67
2022-09-15T00:47:29.886Z,1.83
2022-09-15T00:50:02.783Z,1.83
2022-09-15T00:52:33.880Z,1.90
2022-09-15T00:55:09.255Z,1.73
2022-09-15T00:57:51.492Z,2.10
2022-09-15T01:00:20.449Z,1.90
2022-09-15T01:02:48.445Z,1.87
2022-09-15T01:05:21.858Z,1.90
2022-09-15T01:07:57.503Z,1.90
2022-09-15T01:10:29.133Z,1.90
2022-09-15T01:12:58.973Z,1.90
2022-09-15T01:15:35.977Z,1.60
2022-09-15T01:18:41.258Z,1.83
2022-09-15T01:21:21.274Z,1.90
2022-09-15T01:23:58.803Z,1.80
2022-09-15T01:26:42.317Z,1.90
2022-09-15T01:29:37.630Z,1.80
2022-09-15T01:32:38.825Z,1.80
2022-09-15T01:35:18.519Z,1.87
2022-09-15T01:38:11.077Z,1.60
2022-09-15T01:41:06.744Z,1.70
2022-09-15T01:43:36.787Z,1.80
2022-09-15T01:46:04.697Z,1.53
2022-09-15T01:48:34.083Z,1.40
2022-09-15T01:51:03.531Z,1.60
2022-09-15T01:53:30.463Z,1.40
2022-09-15T01:56:08.829Z,1.50
2022-09-15T01:58:38.573Z,1.80
2022-09-15T02:01:16.796Z,1.67
2022-09-15T02:03:50.331Z,1.77
2022-09-15T02:06:36.024Z,1.50
2022-09-15T02:09:12.722Z,1.57
2022-09-15T02:12:03.165Z,1.40
2022-09-15T02:14:57.528Z,1.30
2022-09-15T02:17:29.220Z,1.47
2022-09-15T02:20:03.342Z,1.53
2022-09-15T02:22:34.685Z,1.50
2022-09-15T02:25:04.586Z,1.60
2022-09-15T02:27:37.923Z,1.40
2022-09-15T02:30:11.769Z,1.50
2022-09-15T02:32:46.612Z,1.50
2022-09-15T02:35:14.508Z,1.50
2022-09-15T02:37:41.863Z,1.40
2022-09-15T02:40:09.680Z,1.60
2022-09-15T02:42:36.859Z,1.47
2022-09-15T02:45:04.314Z,1.50
2022-09-15T02:47:32.039Z,1.47
2022-09-15T02:49:59.030Z,1.63
2022-09-15T02:52:26.183Z,1.50
2022-09-15T02:54:53.495Z,1.50
2022-09-15T02:57:20.972Z,1.50
2022-09-15T03:00:06.499Z,1.40
2022-09-15T03:02:33.824Z,1.50
2022-09-15T03:05:00.698Z,1.40
2022-09-15T03:07:28.501Z,1.17
2022-09-15T03:09:55.547Z,1.40
2022-09-15T03:12:22.407Z,1.40
2022-09-15T03:14:49.747Z,1.50
2022-09-15T03:17:17.449Z,1.17
2022-09-15T03:19:45.070Z,1.20
2022-09-15T03:22:11.925Z,1.37
2022-09-15T03:24:38.900Z,1.20
2022-09-15T03:27:06.047Z,1.23
2022-09-15T03:29:33.005Z,1.20
2022-09-15T03:31:59.886Z,1.40
2022-09-15T03:34:26.872Z,1.33
2022-09-15T03:36:53.661Z,1.37
2022-09-15T03:39:20.639Z,1.20
2022-09-15T03:41:48.207Z,1.20
2022-09-15T03:44:15.358Z,1.30
2022-09-15T03:46:42.205Z,1.20
2022-09-15T03:49:09.336Z,1.20
2022-09-15T03:51:36.150Z,1.10
2022-09-15T03:54:03.254Z,1.10
2022-09-15T03:56:32.673Z,1.10
2022-09-15T03:59:05.582Z,1.20
2022-09-15T04:01:33.251Z,1.20
2022-09-15T04:04:00.254Z,1.40
2022-09-15T04:06:27.625Z,1.10
2022-09-15T04:08:55.037Z,1.13
2022-09-15T04:11:23.088Z,1.27
2022-09-15T04:13:50.143Z,1.30
2022-09-15T04:16:19.675Z,1.30
2022-09-15T04:18:47.021Z,1.30
2022-09-15T04:21:16.471Z,1.27
2022-09-15T04:23:44.316Z,1.60
2022-09-15T04:26:17.113Z,1.20
2022-09-15T04:28:44.022Z,1.20
2022-09-15T04:31:13.695Z,1.40
2022-09-15T04:33:42.101Z,1.27
2022-09-15T04:36:21.148Z,1.40
2022-09-15T04:38:48.543Z,1.20
2022-09-15T04:41:15.458Z,1.40
2022-09-15T04:43:43.390Z,1.10
2022-09-15T04:46:10.989Z,1.10
2022-09-15T04:48:37.919Z,1.30
2022-09-15T04:51:07.488Z,1.50
2022-09-15T04:53:35.730Z,1.10
2022-09-15T04:56:08.252Z,1.20
2022-09-15T04:58:40.303Z,1.27
2022-09-15T05:01:09.068Z,1.50
2022-09-15T05:03:37.698Z,1.20
2022-09-15T05:06:06.424Z,1.43
2022-09-15T05:08:33.518Z,1.50
2022-09-15T05:11:06.257Z,1.67
2022-09-15T05:13:34.549Z,1.40
2022-09-15T05:16:06.629Z,1.70
2022-09-15T05:18:34.199Z,1.30
2022-09-15T05:21:02.857Z,1.47
2022-09-15T05:23:30.158Z,1.30
2022-09-15T05:26:02.354Z,1.40
2022-09-15T05:28:29.513Z,1.20
2022-09-15T05:30:56.385Z,1.23
2022-09-15T05:33:23.989Z,1.30
2022-09-15T05:35:56.781Z,1.10
2022-09-15T05:38:24.751Z,1.20
2022-09-15T05:40:51.551Z,1.37
2022-09-15T05:43:18.687Z,1.40
2022-09-15T05:45:54.438Z,1.10
2022-09-15T05:48:21.656Z,1.13
2022-09-15T05:50:50.595Z,1.30
2022-09-15T05:53:17.729Z,1.30
2022-09-15T05:55:44.863Z,1.10
2022-09-15T05:58:12.069Z,1.23
2022-09-15T06:00:40.356Z,1.33
2022-09-15T06:03:08.246Z,1.30
2022-09-15T06:05:35.067Z,1.20
2022-09-15T06:08:02.104Z,1.30
2022-09-15T06:10:28.994Z,1.20
2022-09-15T06:12:56.641Z,1.27
2022-09-15T06:15:26.120Z,1.20
2022-09-15T06:17:53.204Z,1.33
2022-09-15T06:20:20.886Z,1.47
2022-09-15T06:22:47.936Z,1.20
2022-09-15T06:25:15.364Z,1.20
2022-09-15T06:27:42.320Z,1.13
2022-09-15T06:30:10.333Z,1.40
2022-09-15T06:32:37.196Z,1.20
2022-09-15T06:35:07.668Z,1.20
2022-09-15T06:37:35.060Z,1.40
2022-09-15T06:40:03.587Z,1.40
2022-09-15T06:42:30.484Z,1.20
2022-09-15T06:44:58.210Z,1.30
2022-09-15T06:47:25.203Z,1.30
2022-09-15T06:49:53.385Z,1.50
2022-09-15T06:52:20.280Z,1.30
2022-09-15T06:54:47.169Z,1.30
2022-09-15T06:57:14.015Z,1.40
2022-09-15T06:59:40.821Z,1.20
2022-09-15T07:02:09.776Z,1.40
2022-09-15T07:04:39.598Z,1.27
2022-09-15T07:07:06.408Z,1.30
2022-09-15T07:09:33.157Z,1.30
2022-09-15T07:11:59.974Z,1.40
2022-09-15T07:14:26.835Z,1.67
2022-09-15T07:16:53.697Z,2.50
2022-09-15T07:19:20.709Z,1.50
2022-09-15T07:21:47.550Z,1.60
2022-09-15T07:24:14.575Z,2.07
2022-09-15T07:26:41.913Z,1.50
2022-09-15T07:29:09.804Z,1.27
2022-09-15T07:31:38.616Z,1.30
2022-09-15T07:34:06.135Z,1.50
2022-09-15T07:36:33.069Z,1.40
2022-09-15T07:38:59.859Z,1.40
2022-09-15T07:41:28.776Z,1.10
2022-09-15T07:43:58.228Z,1.47
2022-09-15T07:46:26.301Z,1.40
2022-09-15T07:48:57.528Z,1.40
2022-09-15T07:51:25.153Z,1.30
2022-09-15T07:53:53.243Z,1.50
2022-09-15T07:56:21.109Z,1.30
2022-09-15T07:58:48.721Z,1.40
2022-09-15T08:01:16.647Z,1.50
2022-09-15T08:03:49.049Z,1.40
2022-09-15T08:06:20.382Z,1.50
2022-09-15T08:08:47.432Z,1.40
2022-09-15T08:11:19.240Z,1.50
2022-09-15T08:13:51.287Z,1.40
2022-09-15T08:16:21.778Z,1.50
2022-09-15T08:18:49.726Z,1.60
2022-09-15T08:21:20.370Z,1.50
2022-09-15T08:23:52.196Z,1.40
2022-09-15T08:26:19.100Z,1.63
2022-09-15T08:28:46.349Z,1.50
2022-09-15T08:31:14.418Z,1.50
2022-09-15T08:33:45.414Z,1.70
2022-09-15T08:36:12.792Z,1.57
2022-09-15T08:38:40.834Z,1.40
2022-09-15T08:41:29.572Z,1.70
2022-09-15T08:44:04.626Z,1.50
2022-09-15T08:46:41.749Z,1.47
2022-09-15T08:49:26.861Z,1.77
2022-09-15T08:52:07.653Z,1.60
2022-09-15T08:54:34.458Z,1.60
2022-09-15T08:57:03.337Z,1.70
2022-09-15T08:59:35.708Z,1.80
2022-09-15T09:02:37.974Z,1.50
2022-09-15T09:05:10.768Z,1.70
2022-09-15T09:08:28.568Z,1.60
2022-09-15T09:11:07.320Z,1.77
2022-09-15T09:13:39.466Z,1.40
2022-09-15T09:16:29.715Z,1.70
2022-09-15T09:19:31.377Z,1.70
2022-09-15T09:22:05.186Z,1.80
2022-09-15T09:24:42.199Z,1.50
2022-09-15T09:27:24.318Z,1.70
2022-09-15T09:30:01.038Z,1.70
2022-09-15T09:32:40.528Z,1.73
2022-09-15T09:35:24.959Z,1.90
2022-09-15T09:37:53.384Z,1.90
2022-09-15T09:40:21.283Z,1.63
2022-09-15T09:42:48.596Z,1.83
2022-09-15T09:45:18.682Z,2.00
2022-09-15T09:47:46.488Z,2.53
2022-09-15T09:50:32.372Z,2.53
2022-09-15T09:52:59.733Z,2.03
2022-09-15T09:55:27.987Z,2.20
2022-09-15T09:58:12.645Z,2.00
2022-09-15T10:00:41.110Z,1.90
2022-09-15T10:03:25.481Z,2.03
2022-09-15T10:06:06.479Z,1.90
2022-09-15T10:08:35.169Z,1.93
2022-09-15T10:11:06.246Z,1.90
2022-09-15T10:13:49.250Z,2.00
2022-09-15T10:16:19.420Z,2.20
2022-09-15T10:18:53.985Z,2.00
2022-09-15T10:21:24.818Z,2.20
2022-09-15T10:23:52.321Z,2.37
2022-09-15T10:26:22.971Z,2.30
2022-09-15T10:29:19.213Z,1.87
2022-09-15T10:31:46.649Z,2.50
2022-09-15T10:34:27.022Z,2.10
2022-09-15T10:37:01.331Z,2.00
2022-09-15T10:39:43.312Z,2.03
2022-09-15T10:42:19.147Z,2.40
2022-09-15T10:45:15.894Z,1.97
2022-09-15T10:48:02.949Z,1.80
2022-09-15T10:50:49.611Z,2.30
2022-09-15T10:53:41.474Z,2.50
2022-09-15T10:56:25.436Z,2.13
2022-09-15T10:59:15.939Z,2.10
2022-09-15T11:02:02.342Z,2.10
2022-09-15T11:04:29.147Z,2.37
2022-09-15T11:07:21.560Z,2.10
2022-09-15T11:10:02.841Z,2.23
2022-09-15T11:13:00.619Z,1.97
2022-09-15T11:15:33.299Z,1.70
2022-09-15T11:18:18.971Z,1.90
2022-09-15T11:20:54.593Z,1.53
2022-09-15T11:23:40.156Z,1.77
2022-09-15T11:26:17.174Z,2.10
2022-09-15T11:28:53.420Z,1.80
2022-09-15T11:31:31.485Z,1.87
2022-09-15T11:34:11.942Z,2.30
2022-09-15T11:36:51.213Z,1.80
2022-09-15T11:39:17.945Z,1.60
2022-09-15T11:41:59.596Z,1.80
2022-09-15T11:44:39.741Z,2.90
2022-09-15T11:47:32.013Z,2.10
2022-09-15T11:50:14.845Z,1.40
2022-09-15T11:52:54.926Z,1.43
2022-09-15T11:55:25.000Z,1.53
2022-09-15T11:58:22.374Z,1.50
2022-09-15T12:01:09.000Z,1.40
2022-09-15T12:04:04.098Z,1.27
2022-09-15T12:06:44.773Z,1.43
2022-09-15T12:09:16.739Z,1.60
2022-09-15T12:11:47.420Z,1.40
2022-09-15T12:14:28.154Z,1.50
2022-09-15T12:16:55.835Z,1.43
2022-09-15T12:19:41.686Z,1.50
2022-09-15T12:22:26.989Z,1.47
2022-09-15T12:25:01.487Z,1.60
2022-09-15T12:27:28.698Z,1.80
2022-09-15T12:29:57.598Z,1.70
2022-09-15T12:32:26.849Z,1.90
2022-09-15T12:35:17.605Z,1.70
2022-09-15T12:37:48.932Z,1.80
2022-09-15T12:40:38.430Z,2.07
2022-09-15T12:43:11.570Z,2.20
2022-09-15T12:45:41.113Z,2.20
2022-09-15T12:48:14.917Z,2.30
2022-09-15T12:50:43.572Z,2.33
2022-09-15T12:53:22.888Z,2.20
2022-09-15T12:55:58.187Z,2.27
2022-09-15T12:58:47.413Z,2.37
2022-09-15T13:01:23.604Z,2.30
2022-09-15T13:03:57.792Z,2.10
2022-09-15T13:06:35.846Z,2.10
2022-09-15T13:09:03.266Z,1.90
2022-09-15T13:11:39.187Z,2.20
2022-09-15T13:14:11.379Z,2.03
2022-09-15T13:16:41.200Z,2.10
2022-09-15T13:19:41.638Z,1.70
2022-09-15T13:22:11.529Z,2.00
2022-09-15T13:25:10.735Z,2.33
2022-09-15T13:27:38.855Z,2.20
2022-09-15T13:30:25.400Z,2.20
2022-09-15T13:33:10.296Z,1.77
2022-09-15T13:35:52.295Z,1.83
2022-09-15T13:38:44.029Z,2.30
2022-09-15T13:41:34.117Z,2.47
2022-09-15T13:44:18.184Z,2.30
2022-09-15T13:46:53.396Z,2.27
2022-09-15T13:49:47.004Z,2.30
2022-09-15T13:52:22.371Z,2.67
2022-09-15T13:55:10.079Z,2.73
2022-09-15T14:00:33.687Z,2.40
2022-09-15T14:03:09.517Z,2.80
2022-09-15T14:05:37.230Z,2.90
2022-09-15T14:08:21.048Z,2.43
2022-09-15T14:10:53.343Z,2.87
2022-09-15T14:13:22.741Z,2.60
2022-09-15T14:16:29.766Z,2.60
2022-09-15T14:18:58.671Z,2.27
2022-09-15T14:21:31.236Z,2.40
2022-09-15T14:24:03.440Z,2.43
2022-09-15T14:26:33.762Z,2.50
2022-09-15T14:29:03.792Z,2.50
2022-09-15T14:31:39.383Z,2.60
2022-09-15T14:34:09.709Z,2.30
2022-09-15T14:36:36.763Z,2.13
2022-09-15T14:39:19.346Z,2.20
2022-09-15T14:41:46.578Z,2.40
2022-09-15T14:47:28.585Z,2.63
2022-09-15T14:50:18.279Z,2.73
2022-09-15T14:53:09.911Z,2.30
2022-09-15T14:55:52.995Z,2.27
2022-09-15T14:58:22.745Z,2.60
2022-09-15T15:01:00.223Z,2.77
2022-09-15T15:03:49.893Z,2.20
2022-09-15T15:06:28.892Z,2.27
2022-09-15T15:09:05.365Z,2.20
2022-09-15T15:11:34.908Z,2.20
2022-09-15T15:14:05.761Z,2.03
2022-09-15T15:16:32.866Z,2.43
2022-09-15T15:19:00.344Z,2.30
2022-09-15T15:21:38.269Z,2.13
2022-09-15T15:24:16.761Z,2.37
2022-09-15T15:26:46.217Z,2.00
2022-09-15T15:29:45.897Z,2.23
2022-09-15T15:32:16.146Z,2.10
2022-09-15T15:35:12.957Z,2.20
2022-09-15T15:37:39.963Z,2.20
2022-09-15T15:40:15.108Z,2.60
2022-09-15T15:42:57.702Z,2.00
2022-09-15T15:45:32.528Z,1.70
2022-09-15T15:48:01.821Z,1.80
2022-09-15T15:50:32.172Z,1.90
2022-09-15T15:53:00.807Z,1.90
2022-09-15T15:55:42.360Z,1.70
2022-09-15T15:58:11.522Z,1.60
2022-09-15T16:00:47.867Z,1.43
2022-09-15T16:03:16.319Z,1.80
2022-09-15T16:05:45.999Z,1.83
2022-09-15T16:08:28.070Z,1.57
2022-09-15T16:10:56.216Z,1.70
2022-09-15T16:13:24.552Z,1.80
2022-09-15T16:15:53.760Z,1.50
2022-09-15T16:18:21.393Z,1.63
2022-09-15T16:20:48.667Z,1.63
2022-09-15T16:23:18.596Z,1.63
2022-09-15T16:26:01.584Z,1.60
2022-09-15T16:28:31.160Z,1.70
2022-09-15T16:30:58.725Z,1.60
2022-09-15T16:33:26.382Z,1.73
2022-09-15T16:36:08.176Z,1.67
2022-09-15T16:38:36.396Z,2.00
2022-09-15T16:41:06.059Z,1.97
2022-09-15T16:43:32.865Z,2.50
2022-09-15T16:45:59.690Z,2.17
2022-09-15T16:48:27.288Z,1.93
2022-09-15T16:51:24.951Z,2.50
2022-09-15T16:53:41.354Z,2.60
2022-09-15T16:56:11.369Z,2.30
2022-09-15T16:58:39.181Z,2.70
2022-09-15T17:01:06.762Z,2.27
2022-09-15T17:03:33.751Z,2.37
2022-09-15T17:06:02.003Z,2.20
2022-09-15T17:08:31.569Z,2.70
2022-09-15T17:11:03.834Z,2.10
2022-09-15T17:13:33.338Z,1.70
2022-09-15T17:16:00.982Z,1.60
2022-09-15T17:18:28.561Z,1.60
2022-09-15T17:20:55.449Z,1.50
2022-09-15T17:23:23.661Z,1.23
2022-09-15T17:25:53.548Z,1.20
2022-09-15T17:28:22.780Z,1.20
2022-09-15T17:30:57.940Z,1.33
2022-09-15T17:33:28.649Z,1.20
2022-09-15T17:35:55.724Z,1.57
2022-09-15T17:38:23.089Z,1.50
2022-09-15T17:40:51.485Z,1.50
2022-09-15T17:43:23.629Z,1.40
2022-09-15T17:45:51.707Z,1.40
2022-09-15T17:48:19.143Z,1.30
2022-09-15T17:50:48.583Z,1.30
2022-09-15T17:53:22.789Z,1.33
2022-09-15T17:55:57.255Z,1.30
2022-09-15T17:58:26.677Z,1.50
2022-09-15T18:00:54.400Z,1.40
2022-09-15T18:03:28.047Z,1.17
2022-09-15T18:05:58.285Z,1.40
2022-09-15T18:08:25.983Z,1.20
2022-09-15T18:10:52.859Z,1.50
2022-09-15T18:13:26.886Z,1.40
2022-09-15T18:15:55.015Z,1.60
2022-09-15T18:18:27.696Z,1.60
2022-09-15T18:20:57.679Z,1.50
2022-09-15T18:23:26.656Z,1.53
2022-09-15T18:25:53.548Z,1.60
2022-09-15T18:28:20.557Z,1.60
2022-09-15T18:30:49.373Z,1.40
2022-09-15T18:33:25.234Z,1.50
2022-09-15T18:35:54.811Z,2.07
2022-09-15T18:38:22.930Z,1.70
2022-09-15T18:40:55.867Z,1.70
2022-09-15T18:43:25.295Z,1.60
2022-09-15T18:45:55.000Z,1.70
2022-09-15T18:48:21.914Z,2.07
2022-09-15T18:50:48.817Z,2.00
2022-09-15T18:53:15.595Z,1.83
2022-09-15T18:55:43.660Z,1.80
2022-09-15T18:58:11.675Z,1.90
2022-09-15T19:00:38.609Z,1.87
2022-09-15T19:03:13.961Z,1.90
2022-09-15T19:05:41.053Z,1.67
2022-09-15T19:08:09.176Z,6.27
2022-09-15T19:10:36.250Z,1.90
2022-09-15T19:13:03.154Z,2.10
2022-09-15T19:15:33.722Z,2.00
2022-09-15T19:18:00.559Z,1.90
2022-09-15T19:20:27.553Z,2.37
2022-09-15T19:22:54.342Z,1.73
2022-09-15T19:25:21.172Z,2.00
2022-09-15T19:27:48.559Z,2.13
2022-09-15T19:30:15.492Z,2.10
2022-09-15T19:32:42.854Z,1.90
2022-09-15T19:35:11.244Z,1.53
2022-09-15T19:37:40.370Z,1.70
2022-09-15T19:40:10.041Z,1.80
2022-09-15T19:42:38.561Z,1.40
2022-09-15T19:45:06.384Z,1.87
2022-09-15T19:47:33.541Z,1.80
2022-09-15T19:50:00.450Z,2.00
2022-09-15T19:52:28.339Z,2.30
2022-09-15T19:54:55.390Z,2.80
2022-09-15T19:57:22.622Z,2.00
2022-09-15T19:59:49.959Z,2.03
2022-09-15T20:02:16.755Z,2.30
2022-09-15T20:04:43.695Z,1.80
2022-09-15T20:07:10.552Z,2.10
2022-09-15T20:09:37.431Z,1.93
2022-09-15T20:12:04.616Z,1.93
2022-09-15T20:14:31.787Z,1.90
2022-09-15T20:17:01.122Z,2.17
2022-09-15T20:19:29.264Z,2.00
2022-09-15T20:21:56.116Z,2.10
2022-09-15T20:24:23.871Z,2.00
2022-09-15T20:26:52.268Z,1.93
2022-09-15T20:29:22.784Z,2.17
2022-09-15T20:31:49.514Z,2.60
2022-09-15T20:34:17.886Z,2.30
2022-09-15T20:36:45.289Z,3.40
2022-09-15T20:39:14.910Z,3.23
2022-09-15T20:41:45.050Z,3.13
2022-09-15T20:44:12.113Z,2.80
2022-09-15T20:46:39.416Z,2.47
2022-09-15T20:49:06.956Z,2.30
2022-09-15T20:51:34.192Z,2.70
2022-09-15T20:54:03.996Z,2.27
2022-09-15T20:56:32.702Z,2.40
2022-09-15T20:59:00.445Z,2.40
2022-09-15T21:01:31.866Z,2.20
2022-09-15T21:03:58.992Z,2.40
2022-09-15T21:06:27.996Z,2.20
2022-09-15T21:08:56.660Z,2.17
2022-09-15T21:11:26.354Z,2.33
2022-09-15T21:13:54.274Z,2.30
2022-09-15T21:16:23.428Z,3.13
2022-09-15T21:18:51.336Z,2.60
2022-09-15T21:21:26.328Z,2.90
2022-09-15T21:23:56.236Z,2.50
2022-09-15T21:26:31.276Z,3.63
2022-09-15T21:28:58.287Z,2.70
2022-09-15T21:31:27.725Z,2.77
2022-09-15T21:33:55.595Z,3.00
2022-09-15T21:36:25.461Z,2.80
2022-09-15T21:38:54.100Z,3.17
2022-09-15T21:41:23.109Z,2.80
2022-09-15T21:43:54.904Z,3.90
2022-09-15T21:46:28.537Z,3.70
2022-09-15T21:48:57.613Z,2.80
2022-09-15T21:51:26.140Z,3.07
2022-09-15T21:53:54.668Z,2.77
2022-09-15T21:56:21.978Z,4.00
2022-09-15T21:58:49.313Z,2.73
2022-09-15T22:01:21.786Z,3.03
2022-09-15T22:03:51.541Z,2.90
2022-09-15T22:06:20.724Z,3.03
2022-09-15T22:08:48.408Z,2.70
2022-09-15T22:11:15.412Z,3.00
2022-09-15T22:13:44.585Z,2.87
2022-09-15T22:16:14.944Z,2.93
2022-09-15T22:18:42.686Z,3.07
2022-09-15T22:21:31.520Z,3.07
2022-09-15T22:23:59.453Z,3.60
2022-09-15T22:26:31.184Z,3.20
2022-09-15T22:28:59.473Z,3.60
2022-09-15T22:31:27.709Z,2.97
2022-09-15T22:33:55.001Z,3.43
2022-09-15T22:36:29.574Z,3.03
2022-09-15T22:39:04.257Z,3.13
2022-09-15T22:41:33.822Z,3.20
2022-09-15T22:44:00.987Z,3.13
2022-09-15T22:46:27.785Z,3.40
2022-09-15T22:48:54.698Z,3.00
2022-09-15T22:51:21.529Z,3.40
2022-09-15T22:53:48.340Z,3.30
2022-09-15T22:56:19.831Z,3.50
2022-09-15T22:58:48.553Z,3.70
2022-09-15T23:01:18.398Z,3.67
2022-09-15T23:03:48.928Z,5.63
2022-09-15T23:06:15.746Z,4.77
2022-09-15T23:08:42.620Z,4.50
2022-09-15T23:11:13.941Z,4.67
2022-09-15T23:13:41.597Z,4.10
2022-09-15T23:16:09.170Z,3.60
2022-09-15T23:18:36.713Z,3.63
2022-09-15T23:21:07.384Z,3.67
2022-09-15T23:23:36.082Z,3.90
2022-09-15T23:26:04.691Z,3.33
2022-09-15T23:28:32.362Z,4.33
2022-09-15T23:30:59.975Z,3.90
2022-09-15T23:33:29.066Z,3.67
2022-09-15T23:35:58.210Z,3.93
2022-09-15T23:38:25.301Z,3.57
2022-09-15T23:40:52.274Z,4.00
2022-09-15T23:43:19.152Z,4.03
2022-09-15T23:45:46.234Z,3.90
2022-09-15T23:48:14.020Z,3.67
2022-09-15T23:50:41.501Z,3.73
2022-09-15T23:53:08.742Z,3.43
2022-09-15T23:55:36.131Z,3.73
2022-09-15T23:58:04.352Z,3.90
